Time;durP1;ratioP1;P1;durP2;ratioP2;P2;SDS_P1;SDS_P2;PMS_P1;PMS_P2;Temp;Humidity;BMP_temperature;BMP_pressure;BME280_temperature;BME280_humidity;BME280_pressure;Samples;Min_cycle;Max_cycle;Signal;HPM_P1;HPM_P2
2024/04/03 00:00:45;;;;;;;0.80;0.25;;;;;;;15.03;39.06;100257.78;5073320;28;20055;-76
2024/04/03 00:03:50;;;;;;;5.38;1.85;;;;;;;15.06;38.59;100260.16;5049352;28;20056;-74
2024/04/03 00:06:57;;;;;;;2.92;0.80;;;;;;;15.03;38.79;100255.94;5073342;28;20055;-76
2024/04/03 00:10:01;;;;;;;1.25;0.30;;;;;;;15.29;38.69;100261.19;5060735;28;20055;-74
2024/04/03 00:13:06;;;;;;;3.17;0.40;;;;;;;15.25;38.75;100259.84;5073239;28;20059;-76
2024/04/03 00:16:11;;;;;;;2.28;0.47;;;;;;;15.26;38.85;100256.13;5072791;28;20063;-76
2024/04/03 00:19:16;;;;;;;2.85;0.50;;;;;;;15.09;39.29;100249.00;5060949;28;20052;-74
2024/04/03 00:22:20;;;;;;;1.20;0.35;;;;;;;15.18;39.11;100248.88;5060718;28;20451;-75
2024/04/03 00:25:25;;;;;;;2.08;0.43;;;;;;;15.30;38.92;100247.53;5074617;28;20071;-79
2024/04/03 00:28:30;;;;;;;1.85;0.40;;;;;;;15.53;39.34;100253.13;5064820;28;20044;-79
2024/04/03 00:31:38;;;;;;;2.88;0.40;;;;;;;15.55;39.38;100241.13;5077009;28;20044;-80
2024/04/03 00:34:42;;;;;;;2.30;0.50;;;;;;;15.46;39.78;100252.13;5064729;28;20502;-79
2024/04/03 00:37:47;;;;;;;1.70;0.40;;;;;;;15.55;40.03;100243.81;5076987;28;20051;-79
2024/04/03 00:40:58;;;;;;;2.95;0.40;;;;;;;15.73;40.02;100234.69;5076823;28;20060;-78
2024/04/03 00:44:02;;;;;;;1.48;0.40;;;;;;;15.81;40.24;100231.97;5077010;28;20391;-77
2024/04/03 00:47:08;;;;;;;5.13;0.90;;;;;;;15.70;40.67;100230.50;5076571;28;20482;-76
2024/04/03 00:50:12;;;;;;;3.33;0.57;;;;;;;15.55;41.79;100240.31;5064286;28;20056;-75
2024/04/03 00:53:18;;;;;;;2.92;0.47;;;;;;;15.38;42.90;100233.97;5064410;28;20044;-75
2024/04/03 00:56:24;;;;;;;3.83;0.60;;;;;;;15.60;43.22;100233.34;5076176;28;20119;-75
2024/04/03 00:59:29;;;;;;;5.72;0.70;;;;;;;15.73;43.82;100232.81;5076492;28;20068;-75
2024/04/03 01:02:34;;;;;;;4.10;0.82;;;;;;;15.84;44.99;100235.19;5076532;28;20047;-76
2024/04/03 01:05:39;;;;;;;2.63;0.63;;;;;;;15.86;45.62;100233.16;5076360;28;20056;-76
2024/04/03 01:08:44;;;;;;;3.72;0.70;;;;;;;15.90;45.48;100223.66;5076095;28;20063;-76
2024/04/03 01:11:50;;;;;;;4.63;0.80;;;;;;;15.94;45.72;100222.34;5076250;28;20047;-75
2024/04/03 01:14:54;;;;;;;4.60;0.50;;;;;;;15.80;46.42;100217.59;5076171;28;20071;-76
2024/04/03 01:17:58;;;;;;;4.47;0.70;;;;;;;15.72;46.49;100204.09;5076028;28;20067;-75
2024/04/03 01:21:03;;;;;;;4.53;0.70;;;;;;;15.75;47.01;100208.31;5076040;28;20396;-75
2024/04/03 01:24:08;;;;;;;2.85;0.70;;;;;;;15.53;47.49;100209.84;5076084;28;20068;-75
2024/04/03 01:27:12;;;;;;;6.10;0.70;;;;;;;15.59;46.13;100206.47;5075950;28;20056;-75
2024/04/03 01:30:16;;;;;;;5.10;1.00;;;;;;;15.42;46.63;100207.47;5063609;28;20356;-76
2024/04/03 01:33:20;;;;;;;3.13;0.93;;;;;;;15.64;46.03;100201.38;5075941;28;20051;-79
2024/04/03 01:36:25;;;;;;;4.03;0.88;;;;;;;15.50;46.41;100200.19;5075256;28;20048;-79
2024/04/03 01:39:32;;;;;;;2.50;0.63;;;;;;;15.73;45.17;100184.13;5075626;28;20055;-78
2024/04/03 01:42:37;;;;;;;3.88;0.57;;;;;;;15.88;44.27;100181.53;5075870;28;20048;-80
2024/04/03 01:45:42;;;;;;;3.85;0.60;;;;;;;16.01;43.76;100177.31;5075615;28;20054;-79
2024/04/03 01:48:48;;;;;;;2.55;0.65;;;;;;;16.18;43.45;100181.63;5075942;28;20048;-78
2024/04/03 01:51:52;;;;;;;5.18;1.08;;;;;;;16.22;44.22;100172.13;5075342;28;20498;-78
2024/04/03 01:54:57;;;;;;;4.55;0.90;;;;;;;16.21;45.01;100173.19;5075355;28;20066;-79
2024/04/03 01:58:01;;;;;;;3.40;0.60;;;;;;;16.07;45.47;100167.66;5063205;28;20048;-75
2024/04/03 02:01:06;;;;;;;2.72;0.60;;;;;;;16.00;45.50;100181.00;5074882;28;20062;-79
2024/04/03 02:04:10;;;;;;;2.63;0.73;;;;;;;16.02;45.04;100170.84;5075227;28;20051;-75
2024/04/03 02:07:15;;;;;;;2.67;0.70;;;;;;;15.90;45.57;100174.13;5074839;28;20387;-76
2024/04/03 02:10:19;;;;;;;5.57;0.80;;;;;;;16.05;45.88;100183.19;5075126;28;20043;-76
2024/04/03 02:13:23;;;;;;;3.28;0.52;;;;;;;15.87;46.24;100180.72;5062730;28;20043;-75
2024/04/03 02:16:30;;;;;;;5.97;1.50;;;;;;;15.84;46.37;100181.06;5075010;28;20048;-76
2024/04/03 02:19:35;;;;;;;2.17;0.57;;;;;;;15.81;46.36;100176.00;5074699;28;20426;-75
2024/04/03 02:22:39;;;;;;;4.10;0.80;;;;;;;15.84;45.82;100174.81;5074613;28;20395;-75
2024/04/03 02:25:43;;;;;;;3.15;0.55;;;;;;;15.79;45.76;100167.19;5062529;28;20051;-74
2024/04/03 02:28:48;;;;;;;2.20;0.45;;;;;;;15.79;47.96;100182.59;5062156;28;20060;-73
2024/04/03 02:31:53;;;;;;;6.93;0.77;;;;;;;15.68;49.46;100185.66;5074347;28;20047;-75
2024/04/03 02:34:57;;;;;;;3.30;0.68;;;;;;;15.63;50.30;100182.63;5074594;28;20048;-74
2024/04/03 02:38:02;;;;;;;5.72;0.68;;;;;;;15.62;50.12;100184.50;5062230;28;20056;-75
2024/04/03 02:41:06;;;;;;;3.33;0.82;;;;;;;15.53;50.20;100180.09;5074819;28;20059;-73
2024/04/03 02:44:10;;;;;;;3.30;0.90;;;;;;;15.30;51.44;100192.59;5074175;28;20490;-77
2024/04/03 02:47:15;;;;;;;3.60;1.00;;;;;;;15.24;52.16;100190.53;5074397;28;20051;-77
2024/04/03 02:50:19;;;;;;;2.40;0.70;;;;;;;15.25;52.30;100184.97;5074286;28;20055;-76
2024/04/03 02:53:23;;;;;;;6.28;1.08;;;;;;;15.41;51.72;100178.72;5061974;28;20071;-75
2024/04/03 02:56:28;;;;;;;4.35;0.75;;;;;;;15.36;51.40;100183.78;5073684;28;20048;-75
2024/04/03 02:59:35;;;;;;;6.88;1.02;;;;;;;15.37;51.64;100196.31;5074144;28;20055;-75
2024/04/03 03:02:40;;;;;;;4.10;0.80;;;;;;;15.32;52.13;100187.84;5073731;28;20055;-75
2024/04/03 03:05:47;;;;;;;3.45;0.90;;;;;;;15.19;51.09;100177.53;5050203;28;20056;-75
2024/04/03 03:08:52;;;;;;;3.45;1.00;;;;;;;15.06;51.15;100195.28;5073750;28;20047;-75
2024/04/03 03:11:57;;;;;;;3.17;0.65;;;;;;;15.14;50.46;100184.44;5061634;28;20040;-76
2024/04/03 03:15:01;;;;;;;6.10;0.85;;;;;;;14.70;50.51;100190.13;5061893;28;20051;-76
2024/04/03 03:18:06;;;;;;;5.13;0.90;;;;;;;14.60;50.81;100191.28;5074063;28;20055;-75
2024/04/03 03:21:10;;;;;;;3.40;0.77;;;;;;;14.78;48.97;100200.97;5073515;28;20059;-75
2024/04/03 03:24:16;;;;;;;4.22;0.65;;;;;;;14.70;49.27;100200.94;5073708;28;20392;-75
2024/04/03 03:27:20;;;;;;;4.25;1.05;;;;;;;14.79;49.11;100201.78;5073660;28;20391;-76
2024/04/03 03:30:25;;;;;;;2.53;0.73;;;;;;;14.64;50.10;100206.16;5073697;28;20059;-78
2024/04/03 03:33:30;;;;;;;7.45;1.30;;;;;;;14.59;50.12;100197.72;5073584;28;20043;-76
2024/04/03 03:36:35;;;;;;;3.92;0.77;;;;;;;14.62;50.40;100205.47;5073314;28;20051;-76
2024/04/03 03:39:42;;;;;;;2.72;0.63;;;;;;;14.84;49.98;100197.59;5073670;28;20063;-75
2024/04/03 03:42:46;;;;;;;2.50;0.80;;;;;;;14.80;49.96;100196.25;5073489;28;20051;-76
2024/04/03 03:45:52;;;;;;;3.65;0.80;;;;;;;14.80;50.50;100211.59;5073408;28;20063;-76
2024/04/03 03:52:40;;;;;;;4.60;0.90;;;;;;;14.72;50.59;100209.72;5073181;28;20399;-76
2024/04/03 03:55:44;;;;;;;4.60;0.65;;;;;;;14.67;50.63;100206.66;5073032;28;20059;-76
2024/04/03 03:58:49;;;;;;;3.20;0.82;;;;;;;14.48;51.86;100203.38;5060957;28;20047;-75
2024/04/03 04:01:53;;;;;;;2.60;0.60;;;;;;;14.58;52.12;100210.38;5073242;28;20051;-75
2024/04/03 04:04:58;;;;;;;3.72;0.98;;;;;;;14.60;51.97;100213.75;5073222;28;20052;-74
2024/04/03 04:08:03;;;;;;;2.90;0.70;;;;;;;14.32;52.11;100228.47;5073219;28;20044;-75
2024/04/03 04:11:08;;;;;;;2.88;1.08;;;;;;;14.20;52.52;100230.56;5073218;28;20487;-75
2024/04/03 04:14:12;;;;;;;2.50;0.88;;;;;;;14.12;53.20;100205.41;5073225;28;20044;-75
2024/04/03 04:17:19;;;;;;;3.35;0.95;;;;;;;14.14;53.05;100208.78;5072951;28;20044;-75
2024/04/03 04:20:24;;;;;;;2.83;1.02;;;;;;;14.32;52.79;100214.97;5073098;28;20399;-73
2024/04/03 04:23:28;;;;;;;2.15;0.73;;;;;;;14.41;51.73;100219.41;5060808;28;20051;-73
2024/04/03 04:26:32;;;;;;;6.45;1.23;;;;;;;14.47;52.68;100228.72;5060778;28;20068;-78
2024/04/03 04:29:37;;;;;;;3.13;0.77;;;;;;;14.43;53.29;100232.75;5072994;28;20376;-75
2024/04/03 04:32:42;;;;;;;4.18;0.80;;;;;;;14.57;52.75;100226.72;5072720;28;20532;-75
2024/04/03 04:35:53;;;;;;;3.42;0.60;;;;;;;14.65;52.81;100229.44;5073015;28;20056;-75
2024/04/03 04:38:57;;;;;;;2.30;0.75;;;;;;;14.80;52.00;100225.13;5072732;28;20064;-75
2024/04/03 04:42:02;;;;;;;4.82;1.17;;;;;;;14.46;54.32;100241.38;5072920;28;20123;-76
2024/04/03 04:45:07;;;;;;;2.85;0.98;;;;;;;14.30;55.29;100255.63;5072862;28;20392;-75
2024/04/03 04:48:11;;;;;;;2.97;0.68;;;;;;;14.37;56.41;100260.41;5072509;28;20051;-75
2024/04/03 04:51:19;;;;;;;8.70;1.00;;;;;;;14.49;56.53;100254.56;5072886;28;20055;-75
2024/04/03 04:54:23;;;;;;;4.57;0.98;;;;;;;14.68;56.10;100254.28;5072772;28;20071;-75
2024/04/03 04:57:27;;;;;;;4.18;1.02;;;;;;;14.47;57.36;100243.06;5072010;28;20056;-75
2024/04/03 05:00:32;;;;;;;3.83;0.98;;;;;;;14.50;57.48;100234.63;5072406;28;20056;-74
2024/04/03 05:03:37;;;;;;;3.45;0.82;;;;;;;14.46;57.57;100257.59;5072617;28;20059;-74
2024/04/03 05:06:41;;;;;;;5.07;1.13;;;;;;;14.32;57.63;100239.25;5072276;28;20403;-74
2024/04/03 05:09:46;;;;;;;4.43;0.90;;;;;;;14.36;57.46;100240.66;5072579;28;20056;-74
2024/04/03 05:12:51;;;;;;;4.93;1.13;;;;;;;14.62;55.96;100240.56;5074599;28;20051;-74
2024/04/03 05:15:56;;;;;;;3.72;0.98;;;;;;;14.63;55.43;100256.66;5076103;28;20047;-73
2024/04/03 05:19:00;;;;;;;3.08;0.90;;;;;;;14.49;55.75;100261.81;5063587;28;20155;-75
2024/04/03 05:22:10;;;;;;;4.05;1.33;;;;;;;14.39;55.42;100280.00;5063503;28;20047;-73
2024/04/03 05:25:14;;;;;;;3.30;1.17;;;;;;;14.27;55.95;100290.16;5075931;28;20521;-74
2024/04/03 05:28:19;;;;;;;3.25;1.00;;;;;;;14.29;55.90;100283.59;5075822;28;20048;-73
2024/04/03 05:31:24;;;;;;;6.35;1.00;;;;;;;14.25;55.32;100287.63;5075912;28;20052;-75
2024/04/03 05:34:29;;;;;;;5.88;1.20;;;;;;;14.34;55.02;100286.69;5075797;28;20043;-74
2024/04/03 05:37:33;;;;;;;5.78;1.27;;;;;;;14.40;55.55;100282.53;5075735;28;20387;-74
2024/04/03 05:40:38;;;;;;;6.63;1.20;;;;;;;14.02;56.82;100297.25;5075430;28;20388;-75
2024/04/03 05:43:43;;;;;;;9.13;1.35;;;;;;;14.02;57.13;100301.84;5075530;28;20039;-76
2024/04/03 05:46:48;;;;;;;4.07;1.00;;;;;;;13.68;56.55;100307.09;5075097;28;20067;-75
2024/04/03 05:49:53;;;;;;;2.60;0.88;;;;;;;14.15;54.57;100302.25;5075142;28;20048;-75
2024/04/03 05:52:58;;;;;;;5.00;1.70;;;;;;;14.28;54.32;100302.66;5075239;28;20043;-75
2024/04/03 05:56:03;;;;;;;5.38;3.05;;;;;;;14.36;54.77;100301.91;5075089;28;20052;-76
2024/04/03 05:59:08;;;;;;;6.05;2.13;;;;;;;14.40;55.28;100296.03;5075391;28;20056;-78
2024/04/03 06:02:13;;;;;;;6.30;1.65;;;;;;;14.54;55.53;100295.41;5075828;28;20375;-78
2024/04/03 06:05:17;;;;;;;3.55;1.60;;;;;;;14.57;55.68;100297.78;5062866;28;20056;-78
2024/04/03 06:08:22;;;;;;;7.00;2.28;;;;;;;14.47;56.84;100305.16;5074870;28;20048;-78
2024/04/03 06:11:27;;;;;;;3.53;1.25;;;;;;;14.45;56.40;100303.63;5075125;28;20055;-77
2024/04/03 06:14:31;;;;;;;8.10;1.42;;;;;;;14.42;56.96;100285.91;5075380;28;20063;-76
2024/04/03 06:17:36;;;;;;;5.60;1.42;;;;;;;14.53;54.43;100280.22;5074898;28;20075;-79
2024/04/03 06:20:42;;;;;;;4.35;1.50;;;;;;;14.54;54.64;100286.50;5075002;28;20063;-78
2024/04/03 06:23:47;;;;;;;6.90;1.13;;;;;;;14.49;53.54;100288.81;5061623;28;20047;-78
2024/04/03 06:26:52;;;;;;;4.60;1.00;;;;;;;14.53;52.11;100284.78;5074851;28;20093;-79
2024/04/03 06:29:56;;;;;;;3.75;1.10;;;;;;;14.84;50.69;100289.47;5073866;28;20056;-77
2024/04/03 06:33:01;;;;;;;4.90;1.50;;;;;;;14.92;50.35;100294.06;5074672;28;20051;-77
2024/04/03 06:36:06;;;;;;;4.57;1.10;;;;;;;15.09;50.17;100298.50;5074500;28;20047;-77
2024/04/03 06:39:11;;;;;;;5.60;1.08;;;;;;;15.14;49.28;100287.19;5072656;28;20067;-77
2024/04/03 06:42:15;;;;;;;2.95;0.85;;;;;;;15.32;47.89;100294.16;5075007;28;20075;-83
2024/04/03 06:45:22;;;;;;;3.83;0.90;;;;;;;15.46;47.93;100301.66;5073052;28;20056;-77
2024/04/03 06:48:31;;;;;;;3.40;0.80;;;;;;;15.67;47.50;100297.63;5074035;28;20060;-78
2024/04/03 06:51:47;;;;;;;2.45;0.70;;;;;;;15.57;47.46;100301.34;5060651;28;20047;-75
2024/04/03 06:54:54;;;;;;;6.32;1.40;;;;;;;15.60;47.61;100303.69;5072906;28;20055;-77
2024/04/03 06:58:01;;;;;;;5.40;0.63;;;;;;;15.62;47.71;100303.53;5061355;28;20495;-74
2024/04/03 07:01:07;;;;;;;3.40;0.77;;;;;;;15.67;48.21;100303.03;5073465;28;20048;-75
2024/04/03 07:04:14;;;;;;;4.32;0.60;;;;;;;15.69;48.73;100312.69;5057109;28;20178;-75
2024/04/03 07:07:19;;;;;;;3.13;0.57;;;;;;;15.93;47.56;100317.22;5047706;28;20204;-75
2024/04/03 07:10:27;;;;;;;3.53;0.90;;;;;;;15.90;47.17;100323.84;5065794;28;20047;-76
2024/04/03 07:13:32;;;;;;;1.98;0.60;;;;;;;15.95;47.17;100321.47;5070748;28;20047;-75
2024/04/03 07:16:45;;;;;;;3.83;0.47;;;;;;;15.97;45.91;100335.66;5070558;28;20143;-76
2024/04/03 07:19:50;;;;;;;2.28;0.60;;;;;;;15.74;47.69;100350.91;5071020;28;20059;-75
2024/04/03 07:22:58;;;;;;;5.22;0.75;;;;;;;15.72;49.44;100355.66;5059694;28;20403;-74
2024/04/03 07:26:04;;;;;;;3.05;0.85;;;;;;;15.66;49.15;100359.00;5070953;28;20064;-74
2024/04/03 07:29:11;;;;;;;2.92;1.02;;;;;;;15.64;48.48;100355.63;5070843;28;20052;-75
2024/04/03 07:32:16;;;;;;;3.40;1.10;;;;;;;15.68;49.23;100354.28;5059251;28;20485;-75
2024/04/03 07:35:25;;;;;;;3.15;0.73;;;;;;;15.80;49.70;100357.50;5070215;28;20202;-74
2024/04/03 07:38:30;;;;;;;5.43;0.93;;;;;;;15.72;49.87;100358.34;5070717;28;20063;-74
2024/04/03 07:41:34;;;;;;;4.70;0.75;;;;;;;15.69;49.61;100358.69;5073894;28;20043;-76
2024/04/03 07:44:40;;;;;;;1.70;0.40;;;;;;;15.97;50.05;100361.91;5093285;28;20047;-74
2024/04/03 07:47:48;;;;;;;2.42;0.50;;;;;;;15.91;50.74;100360.72;5093359;28;20055;-77
2024/04/03 07:51:00;;;;;;;4.28;0.77;;;;;;;16.04;49.88;100361.09;5093118;28;20047;-77
2024/04/03 07:54:05;;;;;;;3.22;0.95;;;;;;;16.07;49.05;100355.31;5080836;28;20043;-74
2024/04/03 07:57:10;;;;;;;2.60;0.60;;;;;;;15.94;49.33;100365.81;5092710;28;20055;-74
2024/04/03 08:00:15;;;;;;;5.68;0.80;;;;;;;16.02;49.24;100367.69;5080557;28;20055;-75
2024/04/03 08:03:21;;;;;;;4.15;0.70;;;;;;;15.75;48.59;100352.59;5092924;28;20043;-78
2024/04/03 08:06:26;;;;;;;1.95;0.40;;;;;;;15.84;48.24;100359.72;5092952;28;20066;-75
2024/04/03 08:09:34;;;;;;;3.92;0.60;;;;;;;16.02;48.64;100362.25;5092654;28;20051;-76
2024/04/03 08:12:40;;;;;;;2.75;0.50;;;;;;;15.72;48.85;100361.06;5092792;28;20064;-76
2024/04/03 08:15:45;;;;;;;1.88;0.40;;;;;;;15.67;48.86;100366.13;5092631;28;20059;-79
2024/04/03 08:18:50;;;;;;;2.80;0.60;;;;;;;15.93;47.75;100369.53;5092628;28;20059;-77
2024/04/03 08:21:54;;;;;;;4.20;0.60;;;;;;;16.10;48.41;100376.63;5092657;28;20051;-76
2024/04/03 08:25:00;;;;;;;4.43;0.70;;;;;;;15.96;48.31;100380.03;5092735;28;20359;-78
2024/04/03 08:28:05;;;;;;;3.13;0.85;;;;;;;15.97;48.02;100375.47;5092863;28;20050;-78
2024/04/03 08:31:11;;;;;;;3.72;0.90;;;;;;;16.10;47.89;100376.63;5092299;28;20051;-77
2024/04/03 08:34:16;;;;;;;4.32;0.70;;;;;;;16.33;47.98;100370.53;5080220;28;20051;-77
2024/04/03 08:37:20;;;;;;;4.05;0.70;;;;;;;16.14;47.79;100372.59;5079909;28;20067;-78
2024/04/03 08:40:25;;;;;;;3.90;0.50;;;;;;;16.24;47.32;100370.53;5092563;28;20399;-79
2024/04/03 08:43:30;;;;;;;4.15;0.50;;;;;;;16.53;47.39;100374.59;5092595;28;20051;-79
2024/04/03 08:46:37;;;;;;;2.85;0.68;;;;;;;16.77;47.52;100366.41;5094178;28;20062;-77
2024/04/03 08:49:42;;;;;;;2.17;0.60;;;;;;;17.08;48.02;100356.47;5083941;28;20129;-78
2024/04/03 08:52:48;;;;;;;2.75;0.50;;;;;;;17.45;47.59;100358.47;5096154;28;20058;-76
2024/04/03 08:55:54;;;;;;;4.47;0.70;;;;;;;17.76;47.04;100350.31;5095777;28;20052;-76
2024/04/03 08:58:59;;;;;;;2.50;0.50;;;;;;;18.28;46.01;100345.81;5095913;28;20062;-77
2024/04/03 09:02:05;;;;;;;2.63;0.60;;;;;;;18.92;44.92;100348.88;5096235;28;20095;-78
2024/04/03 09:05:10;;;;;;;2.33;0.60;;;;;;;19.10;44.90;100355.66;5095879;28;20063;-77
2024/04/03 09:08:15;;;;;;;4.13;0.95;;;;;;;19.43;45.29;100342.44;5096041;28;20055;-75
2024/04/03 09:11:24;;;;;;;4.28;0.90;;;;;;;19.74;44.67;100348.47;5095612;28;20054;-78
2024/04/03 09:14:28;;;;;;;3.10;0.70;;;;;;;19.79;43.60;100340.56;5096017;28;20055;-77
2024/04/03 09:17:33;;;;;;;3.88;0.90;;;;;;;20.25;43.50;100338.28;5095751;28;20138;-77
2024/04/03 09:20:41;;;;;;;2.67;0.75;;;;;;;21.33;41.26;100350.28;5083463;28;20525;-77
2024/04/03 09:23:46;;;;;;;2.33;0.70;;;;;;;22.32;39.01;100348.63;5095830;28;20063;-74
2024/04/03 09:26:51;;;;;;;3.25;1.13;;;;;;;22.33;37.90;100349.47;5082898;28;20067;-78
2024/04/03 09:29:56;;;;;;;4.22;0.50;;;;;;;21.89;38.05;100350.06;5095432;28;20047;-77
2024/04/03 09:33:02;;;;;;;1.52;0.50;;;;;;;21.92;37.55;100349.66;5095408;28;20047;-76
2024/04/03 09:36:08;;;;;;;2.67;0.80;;;;;;;21.93;37.71;100354.91;5033036;28;20060;-76
2024/04/03 09:39:13;;;;;;;3.50;0.50;;;;;;;22.02;37.12;100350.09;5032858;28;20068;-77
2024/04/03 09:42:22;;;;;;;5.05;0.82;;;;;;;21.87;37.19;100338.50;5032884;28;20056;-77
2024/04/03 09:45:27;;;;;;;4.40;1.20;;;;;;;21.44;39.03;100337.09;5032758;28;20440;-77
2024/04/03 09:48:33;;;;;;;4.28;1.02;;;;;;;21.03;39.12;100340.69;5032993;28;20064;-76
2024/04/03 09:51:38;;;;;;;2.30;0.98;;;;;;;20.90;40.41;100339.78;5021530;28;20060;-76
2024/04/03 09:54:44;;;;;;;3.35;0.82;;;;;;;20.70;41.08;100340.50;5021404;28;20056;-77
2024/04/03 09:57:58;;;;;;;3.42;0.98;;;;;;;20.73;40.75;100339.25;5031781;28;20052;-76
2024/04/03 10:01:06;;;;;;;6.25;0.60;;;;;;;20.74;40.20;100327.28;5032549;28;20104;-77
2024/04/03 10:04:13;;;;;;;6.05;0.90;;;;;;;20.63;40.47;100330.59;5032552;28;20048;-77
2024/04/03 10:07:18;;;;;;;3.78;0.93;;;;;;;20.46;40.32;100329.22;5081367;28;20071;-77
2024/04/03 10:10:26;;;;;;;2.72;0.50;;;;;;;20.25;40.91;100326.53;5094774;28;20051;-77
2024/04/03 10:13:35;;;;;;;2.05;0.60;;;;;;;20.24;40.86;100327.59;5094612;28;20051;-78
2024/04/03 10:16:40;;;;;;;2.47;0.60;;;;;;;20.02;41.78;100313.94;5094802;28;20059;-78
2024/04/03 10:19:45;;;;;;;3.40;0.63;;;;;;;19.82;42.75;100321.13;5094633;28;20055;-79
2024/04/03 10:22:50;;;;;;;4.57;0.73;;;;;;;19.67;43.46;100323.06;5094600;28;20054;-77
2024/04/03 10:25:55;;;;;;;2.50;0.60;;;;;;;19.65;43.05;100316.13;5094518;28;20051;-77
2024/04/03 10:29:03;;;;;;;2.40;0.52;;;;;;;19.58;43.05;100310.56;5094341;28;20051;-78
2024/04/03 10:32:08;;;;;;;5.13;0.70;;;;;;;19.54;43.66;100306.56;5094267;28;20067;-78
2024/04/03 10:35:12;;;;;;;4.80;1.13;;;;;;;19.13;49.25;100310.88;5094045;28;20150;-78
2024/04/03 10:38:17;;;;;;;3.60;1.02;;;;;;;18.94;50.60;100297.84;5094118;28;20051;-76
2024/04/03 10:41:22;;;;;;;4.78;1.42;;;;;;;18.79;52.91;100312.31;5093933;28;20505;-77
2024/04/03 10:44:28;;;;;;;5.18;1.40;;;;;;;18.87;52.60;100305.94;5094044;28;20059;-76
2024/04/03 10:47:32;;;;;;;4.20;1.30;;;;;;;18.91;52.40;100296.38;5093790;28;20054;-77
2024/04/03 10:50:40;;;;;;;5.80;1.20;;;;;;;18.78;51.81;100288.88;5094060;28;20074;-78
2024/04/03 10:53:45;;;;;;;3.55;1.20;;;;;;;18.52;50.07;100293.94;5092464;28;20055;-79
2024/04/03 10:56:50;;;;;;;7.13;1.25;;;;;;;18.55;49.40;100282.69;5071698;28;20056;-79
2024/04/03 10:59:58;;;;;;;5.47;1.52;;;;;;;18.87;49.97;100286.03;5073147;28;20047;-77
2024/04/03 11:03:04;;;;;;;8.73;1.30;;;;;;;19.17;49.39;100287.69;5059501;28;20044;-77
2024/04/03 11:06:09;;;;;;;4.53;1.00;;;;;;;19.24;47.04;100273.13;5060095;28;20537;-77
2024/04/03 11:09:14;;;;;;;3.67;1.52;;;;;;;19.16;47.50;100277.84;5071439;28;20051;-77
2024/04/03 11:12:19;;;;;;;7.07;1.20;;;;;;;19.15;47.66;100290.59;5070314;28;20056;-77
2024/04/03 11:15:23;;;;;;;5.15;0.65;;;;;;;19.15;46.29;100279.72;5072590;28;20052;-76
2024/04/03 11:18:28;;;;;;;2.63;0.82;;;;;;;19.33;45.07;100282.03;5073162;28;20399;-77
2024/04/03 11:21:32;;;;;;;2.00;0.80;;;;;;;19.12;43.93;100295.56;5060871;28;20458;-77
2024/04/03 11:24:36;;;;;;;1.55;0.45;;;;;;;18.91;43.60;100281.94;5073329;28;20052;-77
2024/04/03 11:27:41;;;;;;;2.72;0.70;;;;;;;18.92;44.69;100287.16;5060836;28;20075;-78
2024/04/03 11:30:47;;;;;;;3.92;0.80;;;;;;;18.94;45.11;100276.09;5073094;28;20051;-81
2024/04/03 11:33:53;;;;;;;3.97;0.70;;;;;;;19.07;44.88;100281.69;5050843;28;20447;-78
2024/04/03 11:36:58;;;;;;;2.92;0.60;;;;;;;19.04;44.45;100282.06;5050851;28;20055;-81
2024/04/03 11:40:06;;;;;;;4.05;0.65;;;;;;;19.01;44.90;100272.41;5039611;28;20079;-80
2024/04/03 11:43:11;;;;;;;2.72;0.60;;;;;;;18.93;44.39;100272.56;5038836;28;20052;-80
2024/04/03 11:46:16;;;;;;;3.97;0.80;;;;;;;18.80;45.34;100278.66;5050478;28;20056;-79
2024/04/03 11:49:21;;;;;;;3.88;0.60;;;;;;;18.75;46.04;100278.38;5042707;28;20133;-77
2024/04/03 11:52:26;;;;;;;3.95;0.90;;;;;;;18.89;45.57;100289.44;5007556;28;20177;-77
2024/04/03 11:55:31;;;;;;;3.97;0.70;;;;;;;18.81;45.94;100279.50;5028795;28;20128;-78
2024/04/03 11:58:35;;;;;;;4.07;0.93;;;;;;;18.91;46.45;100277.34;5029441;28;20076;-81
2024/04/03 12:01:39;;;;;;;5.10;1.05;;;;;;;19.02;45.27;100276.00;5030114;28;20065;-78
2024/04/03 12:04:44;;;;;;;3.00;0.80;;;;;;;18.97;45.14;100268.41;5044100;28;20052;-79
2024/04/03 12:07:49;;;;;;;4.97;0.90;;;;;;;19.02;44.82;100267.81;5052866;28;20075;-78
2024/04/03 12:10:53;;;;;;;2.00;0.60;;;;;;;19.10;44.71;100263.13;5052699;28;20044;-79
2024/04/03 12:13:57;;;;;;;4.35;0.77;;;;;;;19.14;44.91;100269.00;5053188;28;20052;-79
2024/04/03 12:17:05;;;;;;;4.45;0.70;;;;;;;19.04;44.18;100273.91;5052293;28;20455;-77
2024/04/03 12:20:13;;;;;;;3.17;0.80;;;;;;;19.12;44.20;100268.38;5053051;28;20048;-77
2024/04/03 12:23:18;;;;;;;2.20;0.60;;;;;;;19.16;44.30;100267.78;5056369;28;20044;-77
2024/04/03 12:26:23;;;;;;;3.05;1.00;;;;;;;19.21;43.48;100270.78;5056967;28;20044;-77
2024/04/03 12:29:28;;;;;;;3.65;1.00;;;;;;;19.13;43.18;100268.19;5057032;28;20052;-76
2024/04/03 12:32:32;;;;;;;3.28;1.00;;;;;;;19.19;43.74;100264.69;5056042;28;20048;-77
2024/04/03 12:35:37;;;;;;;3.38;0.80;;;;;;;19.26;43.74;100259.31;5056083;28;20045;-76
2024/04/03 12:38:42;;;;;;;2.78;0.80;;;;;;;19.40;44.03;100253.88;5056869;28;20056;-77
2024/04/03 12:41:47;;;;;;;1.88;0.57;;;;;;;19.34;43.98;100261.91;5056521;28;20060;-78
2024/04/03 12:44:52;;;;;;;3.03;0.68;;;;;;;19.48;43.99;100249.34;5056386;28;20368;-76
2024/04/03 12:48:03;;;;;;;3.58;0.50;;;;;;;19.58;44.77;100242.50;5056408;28;20051;-76
2024/04/03 12:51:08;;;;;;;2.97;0.55;;;;;;;19.74;43.40;100255.00;5034553;28;20048;-78
2024/04/03 12:54:12;;;;;;;2.58;0.70;;;;;;;19.58;42.84;100253.38;5034815;28;20424;-80
2024/04/03 12:57:17;;;;;;;3.78;0.68;;;;;;;19.59;43.76;100248.78;5049331;28;20252;-78
2024/04/03 13:00:22;;;;;;;2.90;1.00;;;;;;;19.62;43.85;100253.84;5054201;28;20495;-82
2024/04/03 13:03:26;;;;;;;2.22;0.70;;;;;;;19.44;43.49;100246.13;5052481;28;20047;-80
2024/04/03 13:06:36;;;;;;;4.53;0.93;;;;;;;19.58;45.33;100261.56;5042064;28;20175;-80
2024/04/03 13:09:40;;;;;;;2.20;0.50;;;;;;;19.68;45.86;100251.19;5053714;28;20056;-80
2024/04/03 13:12:45;;;;;;;2.83;0.60;;;;;;;19.85;45.63;100258.03;5053650;28;20140;-81
2024/04/03 13:16:01;;;;;;;2.50;0.80;;;;;;;20.11;45.19;100258.28;5042155;28;20056;-80
2024/04/03 13:19:06;;;;;;;2.38;0.57;;;;;;;20.20;45.65;100258.94;5041974;28;20607;-81
2024/04/03 13:22:16;;;;;;;2.95;0.80;;;;;;;20.07;45.03;100265.13;5054714;28;20403;-79
2024/04/03 13:25:21;;;;;;;2.58;0.68;;;;;;;19.96;44.66;100259.41;5069182;28;20056;-80
2024/04/03 13:28:26;;;;;;;3.85;1.05;;;;;;;19.84;46.49;100267.28;5075214;28;20407;-80
2024/04/03 13:31:30;;;;;;;3.55;1.05;;;;;;;19.79;47.22;100253.41;5074282;28;20051;-79
2024/04/03 13:34:35;;;;;;;2.70;0.82;;;;;;;19.55;48.25;100248.38;5064754;28;20048;-81
2024/04/03 13:37:40;;;;;;;6.30;1.35;;;;;;;19.55;49.86;100245.63;5055115;28;20067;-81
2024/04/03 13:40:46;;;;;;;2.72;1.23;;;;;;;19.62;50.48;100235.66;5054340;28;20047;-80
2024/04/03 13:43:50;;;;;;;2.20;0.90;;;;;;;19.76;50.47;100240.16;5054192;28;20511;-80
2024/04/03 13:46:55;;;;;;;4.45;1.23;;;;;;;19.78;51.24;100240.81;5054797;28;20056;-79
2024/04/03 13:50:00;;;;;;;3.72;1.10;;;;;;;19.73;52.48;100237.81;5054189;28;20582;-81
2024/04/03 13:53:06;;;;;;;4.05;1.10;;;;;;;19.88;50.42;100244.03;5055007;28;20056;-80
2024/04/03 13:56:14;;;;;;;5.05;1.60;;;;;;;19.95;50.27;100242.19;5060034;28;20059;-81
2024/04/03 13:59:19;;;;;;;4.63;1.38;;;;;;;19.72;47.89;100230.72;5074142;28;20075;-81
2024/04/03 14:02:23;;;;;;;5.45;2.05;;;;;;;19.56;47.89;100243.72;5074638;28;20059;-81
2024/04/03 14:05:28;;;;;;;4.45;1.38;;;;;;;19.51;46.66;100252.50;5074066;28;20399;-81
2024/04/03 14:08:35;;;;;;;5.10;1.40;;;;;;;19.67;47.70;100249.53;5074360;28;20052;-80
2024/04/03 14:11:40;;;;;;;4.43;1.17;;;;;;;19.51;46.89;100254.38;5074476;28;20051;-80
2024/04/03 14:14:44;;;;;;;5.13;1.73;;;;;;;19.60;47.55;100245.91;5074539;28;20071;-81
2024/04/03 14:17:49;;;;;;;3.80;0.93;;;;;;;19.71;46.67;100245.34;5074313;28;20114;-83
2024/04/03 14:20:53;;;;;;;5.40;0.98;;;;;;;19.71;48.61;100258.13;5050650;28;20506;-79
2024/04/03 14:23:59;;;;;;;3.08;0.90;;;;;;;19.89;47.82;100258.50;5061754;28;20051;-80